createdAt,value
2023-04-27T00:00:00.270Z,526.1539
2023-04-27T00:01:03.167Z,525.3846
2023-04-27T00:02:06.192Z,523.6154
2023-04-27T00:03:09.414Z,521.3846
2023-04-27T00:04:12.164Z,519.5385
2023-04-27T00:05:15.225Z,517.7692
2023-04-27T00:06:17.967Z,515.3846
2023-04-27T00:07:20.878Z,512.2308
2023-04-27T00:08:23.836Z,511.0000
2023-04-27T00:09:26.766Z,507.7692
2023-04-27T00:10:29.796Z,506.7692
2023-04-27T00:11:32.667Z,509.7692
2023-04-27T00:12:35.638Z,512.4615
2023-04-27T00:13:38.599Z,513.0000
2023-04-27T00:14:41.546Z,512.5385
2023-04-27T00:15:44.532Z,512.3077
2023-04-27T00:16:47.582Z,513.6154
2023-04-27T00:17:50.419Z,518.9231
2023-04-27T00:18:53.322Z,521.6923
2023-04-27T00:19:56.270Z,528.6923
2023-04-27T00:20:59.283Z,524.9231
2023-04-27T00:22:02.215Z,522.3846
2023-04-27T00:23:05.121Z,525.7692
2023-04-27T00:24:08.070Z,524.8461
2023-04-27T00:25:11.050Z,521.4615
2023-04-27T00:26:13.977Z,516.5385
2023-04-27T00:27:16.930Z,513.6154
2023-04-27T00:28:19.877Z,515.0000
2023-04-27T00:29:22.831Z,525.9231
2023-04-27T00:30:25.769Z,530.5385
2023-04-27T00:31:28.756Z,529.2308
2023-04-27T00:32:31.700Z,527.0769
2023-04-27T00:33:34.652Z,530.0769
2023-04-27T00:34:37.574Z,530.3846
2023-04-27T00:35:40.725Z,529.0769
2023-04-27T00:36:43.492Z,526.5385
2023-04-27T00:37:46.412Z,522.3077
2023-04-27T00:38:49.371Z,522.9231
2023-04-27T00:39:52.367Z,527.0769
2023-04-27T00:40:55.267Z,528.0000
2023-04-27T00:41:58.247Z,523.2308
2023-04-27T00:43:01.193Z,523.0769
2023-04-27T00:44:04.122Z,524.0000
2023-04-27T00:45:07.081Z,525.6923
2023-04-27T00:46:10.069Z,525.7692
2023-04-27T00:47:13.018Z,528.4615
2023-04-27T00:48:15.994Z,531.0000
2023-04-27T00:49:18.876Z,534.4615
2023-04-27T00:50:21.825Z,538.9231
2023-04-27T00:51:24.780Z,545.5385
2023-04-27T00:52:27.737Z,547.3846
2023-04-27T00:53:30.689Z,548.0000
2023-04-27T00:54:33.678Z,547.0769
2023-04-27T00:55:36.612Z,544.3077
2023-04-27T00:56:39.540Z,544.7692
2023-04-27T00:57:42.505Z,548.6154
2023-04-27T00:58:45.421Z,547.8461
2023-04-27T00:59:48.412Z,544.3077
2023-04-27T01:00:51.341Z,542.5385
2023-04-27T01:01:54.277Z,542.6923
2023-04-27T01:02:57.329Z,540.5385
2023-04-27T01:04:00.298Z,539.5385
2023-04-27T01:05:03.124Z,540.1539
2023-04-27T01:06:06.072Z,543.1539
2023-04-27T01:07:09.196Z,544.4615
2023-04-27T01:08:11.983Z,545.5385
2023-04-27T01:09:15.137Z,544.2308
2023-04-27T01:10:17.871Z,539.3077
2023-04-27T01:11:20.826Z,536.7692
2023-04-27T01:12:23.757Z,533.3846
2023-04-27T01:13:26.757Z,527.3077
2023-04-27T01:14:29.656Z,525.4615
2023-04-27T01:15:32.603Z,525.2308
2023-04-27T01:16:35.602Z,527.2308
2023-04-27T01:17:38.561Z,528.5385
2023-04-27T01:18:41.456Z,530.2308
2023-04-27T01:19:44.478Z,527.6154
2023-04-27T01:20:47.381Z,529.0769
2023-04-27T01:21:50.397Z,530.7692
2023-04-27T01:22:53.248Z,530.6923
2023-04-27T01:23:56.186Z,533.3846
2023-04-27T01:24:59.228Z,538.6923
2023-04-27T01:26:02.095Z,540.7692
2023-04-27T01:27:05.064Z,540.0000
2023-04-27T01:28:08.025Z,538.2308
2023-04-27T01:29:11.235Z,536.9231
2023-04-27T01:30:13.926Z,535.7692
2023-04-27T01:31:16.909Z,534.3846
2023-04-27T01:32:19.806Z,531.6154
2023-04-27T01:33:22.782Z,529.3846
2023-04-27T01:34:25.715Z,528.1539
2023-04-27T01:35:28.641Z,529.0769
2023-04-27T01:36:31.591Z,533.4615
2023-04-27T01:37:34.547Z,539.2308
2023-04-27T01:38:37.499Z,546.5385
2023-04-27T01:39:40.449Z,554.0000
2023-04-27T01:40:43.384Z,554.5385
2023-04-27T01:41:46.371Z,550.4615
2023-04-27T01:42:49.280Z,546.6154
2023-04-27T01:43:52.244Z,545.1539
2023-04-27T01:44:55.205Z,544.5385
2023-04-27T01:45:58.181Z,544.1539
2023-04-27T01:47:01.195Z,544.3846
2023-04-27T01:48:04.069Z,545.8461
2023-04-27T01:49:06.991Z,548.2308
2023-04-27T01:50:09.971Z,548.7692
2023-04-27T01:51:12.940Z,546.0769
2023-04-27T01:52:15.894Z,542.9231
2023-04-27T01:53:18.794Z,539.0769
2023-04-27T01:54:21.739Z,538.9231
2023-04-27T01:55:24.702Z,541.6923
2023-04-27T01:56:27.654Z,545.7692
2023-04-27T01:57:30.613Z,546.2308
2023-04-27T01:58:33.583Z,547.0769
2023-04-27T01:59:36.506Z,548.8461
2023-04-27T02:00:39.439Z,546.6923
2023-04-27T02:01:42.462Z,545.6154
2023-04-27T02:02:45.422Z,546.0769
2023-04-27T02:03:48.415Z,542.6923
2023-04-27T02:04:51.255Z,542.6154
2023-04-27T02:05:54.183Z,542.7692
2023-04-27T02:06:57.141Z,543.1539
2023-04-27T02:08:00.135Z,544.3846
2023-04-27T02:09:03.003Z,544.0769
2023-04-27T02:10:05.999Z,543.0769
2023-04-27T02:11:08.934Z,541.3846
2023-04-27T02:12:11.878Z,540.3846
2023-04-27T02:13:14.795Z,541.0769
2023-04-27T02:14:17.746Z,543.5385
2023-04-27T02:15:20.676Z,544.7692
2023-04-27T02:16:23.673Z,544.0000
2023-04-27T02:17:26.814Z,542.2308
2023-04-27T02:18:29.525Z,540.9231
2023-04-27T02:19:32.491Z,541.3077
2023-04-27T02:20:35.495Z,541.8461
2023-04-27T02:21:38.371Z,542.0000
2023-04-27T02:22:41.317Z,542.6154
2023-04-27T02:23:44.261Z,544.0769
2023-04-27T02:24:47.270Z,548.8461
2023-04-27T02:25:50.142Z,545.6154
2023-04-27T02:26:53.112Z,543.2308
2023-04-27T02:27:56.061Z,547.6154
2023-04-27T02:28:58.993Z,549.9231
2023-04-27T02:30:01.966Z,548.3077
2023-04-27T02:31:04.931Z,549.0000
2023-04-27T02:32:07.834Z,548.4615
2023-04-27T02:33:10.797Z,546.8461
2023-04-27T02:34:13.732Z,547.2308
2023-04-27T02:35:16.719Z,542.9231
2023-04-27T02:36:19.714Z,539.4615
2023-04-27T02:37:22.691Z,534.1539
2023-04-27T02:38:25.585Z,528.0000
2023-04-27T02:39:28.545Z,528.7692
2023-04-27T02:40:31.513Z,522.8461
2023-04-27T02:41:34.457Z,526.6154
2023-04-27T02:42:37.392Z,527.8461
2023-04-27T02:43:40.342Z,526.8461
2023-04-27T02:44:43.314Z,525.4615
2023-04-27T02:45:46.229Z,527.3077
2023-04-27T02:46:49.224Z,532.6923
2023-04-27T02:47:52.172Z,539.6154
2023-04-27T02:48:55.112Z,542.0769
2023-04-27T02:49:58.039Z,542.5385
2023-04-27T02:51:00.968Z,546.3077
2023-04-27T02:52:03.944Z,550.3846
2023-04-27T02:53:06.875Z,554.0000
2023-04-27T02:54:09.821Z,556.2308
2023-04-27T02:55:12.769Z,560.4615
2023-04-27T02:56:15.738Z,562.3077
2023-04-27T02:57:18.664Z,561.1539
2023-04-27T02:58:21.609Z,561.8461
2023-04-27T02:59:24.556Z,560.5385
2023-04-27T03:00:27.508Z,558.6154
2023-04-27T03:01:30.510Z,559.9231
2023-04-27T03:02:33.512Z,562.4615
2023-04-27T03:03:36.422Z,563.2308
2023-04-27T03:04:39.464Z,562.3846
2023-04-27T03:05:42.246Z,560.1539
2023-04-27T03:06:45.204Z,557.4615
2023-04-27T03:07:48.199Z,556.3077
2023-04-27T03:08:51.098Z,552.4615
2023-04-27T03:09:54.033Z,550.0000
2023-04-27T03:10:56.996Z,549.3846
2023-04-27T03:12:00.058Z,549.9231
2023-04-27T03:13:02.902Z,547.9231
2023-04-27T03:14:05.842Z,543.9231
2023-04-27T03:15:08.792Z,540.3077
2023-04-27T03:16:11.827Z,539.3846
2023-04-27T03:17:14.679Z,540.3846
2023-04-27T03:18:17.699Z,541.0769
2023-04-27T03:19:20.575Z,543.0000
2023-04-27T03:20:23.541Z,544.2308
2023-04-27T03:21:26.472Z,544.1539
2023-04-27T03:22:29.468Z,547.3077
2023-04-27T03:23:32.373Z,568.2308
2023-04-27T03:24:35.324Z,594.4615
2023-04-27T03:25:38.266Z,589.5385
2023-04-27T03:26:41.272Z,566.0000
2023-04-27T03:27:44.169Z,567.2308
2023-04-27T03:28:47.103Z,565.3846
2023-04-27T03:29:50.068Z,560.6923
2023-04-27T03:30:53.009Z,555.5385
2023-04-27T03:31:55.973Z,556.6923
2023-04-27T03:32:58.963Z,560.8461
2023-04-27T03:34:01.861Z,565.0000
2023-04-27T03:35:04.790Z,568.3077
2023-04-27T03:36:07.780Z,568.6923
2023-04-27T03:37:10.740Z,564.6923
2023-04-27T03:38:13.683Z,562.7692
2023-04-27T03:39:16.654Z,561.2308
2023-04-27T03:40:19.547Z,556.5385
2023-04-27T03:41:22.484Z,556.7692
2023-04-27T03:42:25.626Z,555.8461
2023-04-27T03:43:28.408Z,550.6923
2023-04-27T03:44:31.374Z,546.3846
2023-04-27T03:45:34.285Z,545.2308
2023-04-27T03:46:37.248Z,544.7692
2023-04-27T03:47:40.261Z,545.0769
2023-04-27T03:48:43.180Z,550.3846
2023-04-27T03:49:46.110Z,556.0000
2023-04-27T03:50:49.036Z,558.9231
2023-04-27T03:51:51.981Z,564.2308
2023-04-27T03:52:54.946Z,573.0000
2023-04-27T03:53:57.861Z,582.4615
2023-04-27T03:55:00.876Z,587.8461
2023-04-27T03:56:03.756Z,588.0769
2023-04-27T03:57:06.731Z,590.0000
2023-04-27T03:58:09.706Z,590.0000
2023-04-27T03:59:12.950Z,588.1539
2023-04-27T04:00:15.571Z,585.2308
2023-04-27T04:01:18.503Z,580.9231
2023-04-27T04:02:21.520Z,575.4615
2023-04-27T04:03:24.534Z,572.2308
2023-04-27T04:04:27.514Z,566.2308
2023-04-27T04:05:30.353Z,562.8461
2023-04-27T04:06:33.231Z,563.0769
2023-04-27T04:07:36.206Z,558.5385
2023-04-27T04:08:39.129Z,556.8461
2023-04-27T04:09:42.160Z,555.7692
2023-04-27T04:10:45.070Z,553.0769
2023-04-27T04:11:48.055Z,549.3846
2023-04-27T04:12:50.971Z,549.3077
2023-04-27T04:13:53.967Z,551.9231
2023-04-27T04:14:56.845Z,550.1539
2023-04-27T04:15:59.892Z,548.6923
2023-04-27T04:17:02.829Z,548.6923
2023-04-27T04:18:05.779Z,549.9231
2023-04-27T04:19:08.670Z,552.3846
2023-04-27T04:20:11.609Z,552.4615
2023-04-27T04:21:14.875Z,552.2308
2023-04-27T04:22:17.469Z,552.9231
2023-04-27T04:23:20.443Z,550.3077
2023-04-27T04:24:23.372Z,547.1539
2023-04-27T04:25:26.360Z,549.4615
2023-04-27T04:26:29.342Z,555.8461
2023-04-27T04:27:32.278Z,553.6923
2023-04-27T04:28:35.178Z,553.3846
2023-04-27T04:29:38.104Z,552.0769
2023-04-27T04:30:41.093Z,550.6154
2023-04-27T04:31:44.060Z,550.6154
2023-04-27T04:32:47.049Z,551.1539
2023-04-27T04:33:49.945Z,552.7692
2023-04-27T04:34:52.863Z,554.3846
2023-04-27T04:35:55.819Z,558.5385
2023-04-27T04:36:58.783Z,561.9231
2023-04-27T04:38:01.757Z,563.2308
2023-04-27T04:39:04.689Z,565.0000
2023-04-27T04:40:07.602Z,564.0769
2023-04-27T04:41:10.576Z,560.3077
2023-04-27T04:42:13.492Z,558.3846
2023-04-27T04:43:16.489Z,559.6154
2023-04-27T04:44:19.413Z,560.0769
2023-04-27T04:45:22.400Z,560.8461
2023-04-27T04:46:25.337Z,561.3077
2023-04-27T04:47:28.315Z,561.9231
2023-04-27T04:48:31.218Z,561.6154
2023-04-27T04:49:34.265Z,564.5385
2023-04-27T04:50:37.096Z,567.0769
2023-04-27T04:51:40.039Z,568.5385
2023-04-27T04:52:42.999Z,569.7692
2023-04-27T04:53:46.057Z,572.5385
2023-04-27T04:54:48.923Z,576.0000
2023-04-27T04:55:51.852Z,576.0769
2023-04-27T04:56:54.769Z,576.8461
2023-04-27T04:57:57.742Z,577.3077
2023-04-27T04:59:00.700Z,578.1539
2023-04-27T05:00:03.677Z,578.3077
2023-04-27T05:01:06.828Z,579.3846
2023-04-27T05:02:09.545Z,575.9231
2023-04-27T05:03:15.211Z,572.5385
2023-04-27T05:04:15.794Z,572.9231
2023-04-27T05:05:18.368Z,567.8461
2023-04-27T05:06:21.328Z,561.8461
2023-04-27T05:07:25.173Z,567.1539
2023-04-27T05:08:27.249Z,566.9231
2023-04-27T05:09:30.187Z,563.7692
2023-04-27T05:10:33.120Z,561.6923
2023-04-27T05:11:36.034Z,559.6923
2023-04-27T05:12:38.990Z,560.2308
2023-04-27T05:13:41.949Z,565.3077
2023-04-27T05:14:44.904Z,564.5385
2023-04-27T05:15:47.858Z,560.9231
2023-04-27T05:16:50.766Z,559.0000
2023-04-27T05:17:53.820Z,557.6154
2023-04-27T05:18:56.676Z,557.7692
2023-04-27T05:19:59.637Z,555.7692
2023-04-27T05:21:02.561Z,553.0769
2023-04-27T05:22:05.510Z,555.6154
2023-04-27T05:23:08.486Z,553.8461
2023-04-27T05:24:11.403Z,551.6154
2023-04-27T05:25:14.528Z,551.6154
2023-04-27T05:26:17.290Z,553.3077
2023-04-27T05:27:20.261Z,550.8461
2023-04-27T05:28:23.192Z,548.7692
2023-04-27T05:29:26.164Z,548.6923
2023-04-27T05:30:29.114Z,549.3846
2023-04-27T05:31:32.049Z,546.9231
2023-04-27T05:32:35.040Z,544.5385
2023-04-27T05:33:37.930Z,541.9231
2023-04-27T05:34:40.979Z,539.0000
2023-04-27T05:35:43.830Z,539.7692
2023-04-27T05:36:46.795Z,542.0769
2023-04-27T05:37:49.743Z,544.1539
2023-04-27T05:38:52.676Z,544.7692
2023-04-27T05:39:55.636Z,541.0769
2023-04-27T05:40:58.563Z,537.3077
2023-04-27T05:42:01.604Z,534.3846
2023-04-27T05:43:04.450Z,533.9231
2023-04-27T05:44:07.429Z,533.5385
2023-04-27T05:45:10.343Z,531.8461
2023-04-27T05:46:13.389Z,531.0769
2023-04-27T05:47:16.258Z,528.2308
2023-04-27T05:48:19.181Z,527.2308
2023-04-27T05:49:22.129Z,527.3846
2023-04-27T05:50:25.079Z,529.1539
2023-04-27T05:51:28.013Z,531.0000
2023-04-27T05:52:31.048Z,532.0000
2023-04-27T05:53:33.914Z,535.3077
2023-04-27T05:54:36.861Z,536.6154
2023-04-27T05:55:39.803Z,535.5385
2023-04-27T05:56:42.771Z,532.1539
2023-04-27T05:58:48.708Z,526.6154
2023-04-27T05:59:51.600Z,526.2308
2023-04-27T06:00:54.689Z,522.6154
2023-04-27T06:01:57.637Z,521.0769
2023-04-27T06:03:00.711Z,517.0769
2023-04-27T06:04:03.526Z,514.6154
2023-04-27T06:05:06.430Z,514.0769
2023-04-27T06:06:09.293Z,512.5385
2023-04-27T06:07:12.277Z,510.6154
2023-04-27T06:08:15.188Z,508.6923
2023-04-27T06:09:18.151Z,508.4615
2023-04-27T06:10:21.084Z,510.6923
2023-04-27T06:11:24.056Z,513.4615
2023-04-27T06:12:26.994Z,512.2308
2023-04-27T06:13:29.923Z,509.9231
2023-04-27T06:14:32.872Z,508.3846
2023-04-27T06:15:35.834Z,506.3846
2023-04-27T06:16:39.016Z,503.9231
2023-04-27T06:17:41.806Z,501.5385
2023-04-27T06:18:44.658Z,497.6923
2023-04-27T06:19:47.605Z,495.7692
2023-04-27T06:20:50.550Z,493.7692
2023-04-27T06:21:53.517Z,492.6154
2023-04-27T06:22:56.432Z,491.0769
2023-04-27T06:23:59.439Z,488.7692
2023-04-27T06:25:02.363Z,488.3846
2023-04-27T06:26:05.270Z,489.0769
2023-04-27T06:27:08.227Z,488.4615
2023-04-27T06:28:11.180Z,488.4615
2023-04-27T06:29:14.374Z,489.6154
2023-04-27T06:30:17.055Z,491.3077
2023-04-27T06:31:20.077Z,493.0769
2023-04-27T06:32:22.993Z,492.3077
2023-04-27T06:33:25.917Z,493.1538
2023-04-27T06:34:28.852Z,493.9231
2023-04-27T06:35:31.798Z,494.8462
2023-04-27T06:36:34.750Z,493.8462
2023-04-27T06:37:37.694Z,493.8462
2023-04-27T06:38:40.652Z,493.6923
2023-04-27T06:39:43.594Z,492.3077
2023-04-27T06:40:46.536Z,490.5385
2023-04-27T06:41:49.492Z,489.7692
2023-04-27T06:42:52.461Z,489.4615
2023-04-27T06:43:57.472Z,488.9231
2023-04-27T06:44:58.396Z,489.0000
2023-04-27T06:46:01.449Z,488.0000
2023-04-27T06:47:04.288Z,487.3077
2023-04-27T06:48:07.388Z,485.4615
2023-04-27T06:49:10.193Z,486.8462
2023-04-27T06:50:13.147Z,485.3077
2023-04-27T06:51:16.069Z,484.1538
2023-04-27T06:52:19.007Z,482.6154
2023-04-27T06:53:21.944Z,481.1538
2023-04-27T06:54:24.912Z,481.3846
2023-04-27T06:55:27.839Z,481.8462
2023-04-27T06:56:30.797Z,481.7692
2023-04-27T06:57:33.734Z,480.8462
2023-04-27T06:58:36.711Z,477.3846
2023-04-27T06:59:39.635Z,476.8462
2023-04-27T07:00:42.663Z,477.7692
2023-04-27T07:01:45.543Z,479.3077
2023-04-27T07:02:48.518Z,478.3846
2023-04-27T07:03:51.936Z,477.3077
2023-04-27T07:04:54.436Z,475.4615
2023-04-27T07:05:57.294Z,474.6923
2023-04-27T07:07:00.242Z,475.3846
2023-04-27T07:08:06.161Z,477.6154
2023-04-27T07:09:16.359Z,477.1538
2023-04-27T07:10:09.098Z,476.0769
2023-04-27T07:11:12.057Z,476.6154
2023-04-27T07:12:14.977Z,477.5385
2023-04-27T07:13:17.935Z,474.6923
2023-04-27T07:14:20.868Z,474.1538
2023-04-27T07:15:23.871Z,474.6154
2023-04-27T07:16:26.888Z,473.6154
2023-04-27T07:17:29.736Z,474.3077
2023-04-27T07:18:32.648Z,471.3077
2023-04-27T07:19:35.597Z,470.0769
2023-04-27T07:20:38.520Z,469.1538
2023-04-27T07:21:41.501Z,467.4615
2023-04-27T07:22:44.453Z,468.1538
2023-04-27T07:23:47.368Z,469.2308
2023-04-27T07:24:50.339Z,466.6923
2023-04-27T07:25:53.298Z,465.0769
2023-04-27T07:26:56.241Z,464.6154
2023-04-27T07:27:59.208Z,462.8462
2023-04-27T07:29:11.132Z,465.0000
2023-04-27T07:30:05.122Z,464.6154
2023-04-27T07:31:08.049Z,463.2308
2023-04-27T07:32:11.084Z,465.1538
2023-04-27T07:33:13.924Z,463.6154
2023-04-27T07:34:16.880Z,464.6154
2023-04-27T07:35:19.836Z,462.4615
2023-04-27T07:36:22.791Z,461.1538
2023-04-27T07:37:26.038Z,459.2308
2023-04-27T07:38:28.699Z,458.5385
2023-04-27T07:39:31.644Z,457.3077
2023-04-27T07:40:34.619Z,457.3846
2023-04-27T07:41:37.695Z,457.3077
2023-04-27T07:42:40.514Z,454.0000
2023-04-27T07:43:43.449Z,455.7692
2023-04-27T07:44:46.415Z,454.7692
2023-04-27T07:45:49.407Z,453.1538
2023-04-27T07:46:52.323Z,454.2308
2023-04-27T07:47:57.575Z,454.8462
2023-04-27T07:48:58.256Z,454.9231
2023-04-27T07:50:01.177Z,453.6154
2023-04-27T07:51:04.131Z,454.9231
2023-04-27T07:52:07.103Z,453.0769
2023-04-27T07:53:10.033Z,450.0769
2023-04-27T07:54:13.001Z,449.3077
2023-04-27T07:55:15.941Z,449.5385
2023-04-27T07:56:18.885Z,450.4615
2023-04-27T07:57:22.009Z,452.5385
2023-04-27T07:58:24.794Z,453.3846
2023-04-27T07:59:27.751Z,453.9231
2023-04-27T08:00:30.767Z,452.7692
2023-04-27T08:01:33.665Z,452.4615
2023-04-27T08:02:36.775Z,452.3846
2023-04-27T08:03:39.897Z,452.6923
2023-04-27T08:04:42.818Z,451.9231
2023-04-27T08:05:45.674Z,451.7692
2023-04-27T08:06:48.934Z,453.1538
2023-04-27T08:07:51.848Z,455.7692
2023-04-27T08:08:54.431Z,454.6154
2023-04-27T08:09:57.282Z,454.0000
2023-04-27T08:11:00.222Z,453.1538
2023-04-27T08:12:03.184Z,455.2308
2023-04-27T08:13:06.122Z,454.2308
2023-04-27T08:14:09.126Z,451.6154
2023-04-27T08:15:12.044Z,451.0000
2023-04-27T08:16:15.003Z,452.5385
2023-04-27T08:17:17.941Z,450.3077
2023-04-27T08:18:20.871Z,451.0000
2023-04-27T08:19:23.834Z,450.6154
2023-04-27T08:20:26.796Z,453.4615
2023-04-27T08:21:29.714Z,451.5385
2023-04-27T08:22:32.664Z,450.0000
2023-04-27T08:23:35.635Z,449.6154
2023-04-27T08:24:38.575Z,449.7692
2023-04-27T08:25:41.499Z,449.3077
2023-04-27T08:26:44.429Z,449.3846
2023-04-27T08:27:47.378Z,451.3077
2023-04-27T08:28:50.365Z,450.1538
2023-04-27T08:29:53.255Z,448.9231
2023-04-27T08:30:56.227Z,448.3077
2023-04-27T08:31:59.263Z,446.0769
2023-04-27T08:33:02.213Z,442.4615
2023-04-27T08:34:05.058Z,442.2308
2023-04-27T08:35:07.989Z,442.0769
2023-04-27T08:36:10.931Z,439.6923
2023-04-27T08:37:14.094Z,442.3846
2023-04-27T08:38:16.837Z,445.0769
2023-04-27T08:39:19.797Z,445.4615
2023-04-27T08:40:22.906Z,447.0769
2023-04-27T08:41:25.671Z,445.2308
2023-04-27T08:42:28.646Z,445.0000
2023-04-27T08:43:31.584Z,443.9231
2023-04-27T08:44:34.501Z,443.6154
2023-04-27T08:45:37.447Z,442.0769
2023-04-27T08:46:40.408Z,440.6923
2023-04-27T08:47:44.139Z,440.5385
2023-04-27T08:48:46.276Z,439.0769
2023-04-27T08:49:49.269Z,437.3077
2023-04-27T08:50:52.222Z,438.6923
2023-04-27T08:51:55.125Z,437.1538
2023-04-27T08:52:58.081Z,436.7692
2023-04-27T08:54:01.012Z,437.6923
2023-04-27T08:55:03.975Z,438.3077
2023-04-27T08:56:06.970Z,437.6154
2023-04-27T08:57:09.850Z,436.9231
2023-04-27T08:58:12.824Z,435.7692
2023-04-27T08:59:16.541Z,431.7692
2023-04-27T09:00:18.735Z,434.5385
2023-04-27T09:01:21.917Z,435.6923
2023-04-27T09:02:24.621Z,434.6154
2023-04-27T09:03:27.678Z,432.3846
2023-04-27T09:04:30.599Z,431.9231
2023-04-27T09:05:33.529Z,434.6154
2023-04-27T09:06:36.452Z,435.0769
2023-04-27T09:07:39.327Z,433.6923
2023-04-27T09:08:42.276Z,434.2308
2023-04-27T09:09:45.272Z,435.1538
2023-04-27T09:10:48.183Z,435.4615
2023-04-27T09:11:51.127Z,433.0000
2023-04-27T09:12:54.084Z,431.2308
2023-04-27T09:13:57.046Z,435.2308
2023-04-27T09:14:59.975Z,434.3077
2023-04-27T09:16:02.942Z,430.7692
2023-04-27T09:17:05.868Z,431.1538
2023-04-27T09:18:08.871Z,430.2308
2023-04-27T09:19:11.965Z,429.3846
2023-04-27T09:20:14.699Z,427.3846
2023-04-27T09:21:17.689Z,425.3077
2023-04-27T09:22:20.640Z,424.6154
2023-04-27T09:23:23.564Z,426.4615
2023-04-27T09:24:26.501Z,426.2308
2023-04-27T09:25:29.484Z,427.0000
2023-04-27T09:26:32.415Z,427.3077
2023-04-27T09:27:35.366Z,428.5385
2023-04-27T09:28:38.326Z,428.9231
2023-04-27T09:29:41.248Z,426.4615
2023-04-27T09:30:44.179Z,426.6154
2023-04-27T09:31:47.215Z,424.6154
2023-04-27T09:32:50.123Z,426.3077
2023-04-27T09:33:53.053Z,426.8462
2023-04-27T09:34:55.982Z,427.0769
2023-04-27T09:35:58.930Z,427.1538
2023-04-27T09:37:01.873Z,426.7692
2023-04-27T09:38:04.892Z,427.8462
2023-04-27T09:39:07.812Z,426.8462
2023-04-27T09:40:10.718Z,425.9231
2023-04-27T09:41:13.672Z,424.3846
2023-04-27T09:42:16.653Z,424.2308
2023-04-27T09:43:19.554Z,426.0769
2023-04-27T09:44:22.535Z,428.2308
2023-04-27T09:45:25.664Z,430.1538
2023-04-27T09:46:28.532Z,429.1538
2023-04-27T09:47:31.390Z,427.5385
2023-04-27T09:48:34.352Z,425.4615
2023-04-27T09:49:37.286Z,424.4615
2023-04-27T09:50:40.220Z,424.9231
2023-04-27T09:51:43.169Z,425.2308
2023-04-27T09:52:46.239Z,425.7692
2023-04-27T09:53:49.475Z,425.8462
2023-04-27T09:54:52.027Z,423.4615
2023-04-27T09:55:54.971Z,425.0000
2023-04-27T09:56:57.932Z,421.7692
2023-04-27T09:58:00.883Z,421.6923
2023-04-27T09:59:03.847Z,421.6923
2023-04-27T10:00:06.826Z,423.6154
2023-04-27T10:01:09.795Z,415.6923
2023-04-27T10:02:24.278Z,421.3077
2023-04-27T10:03:15.729Z,421.8462
2023-04-27T10:04:18.745Z,422.9231
2023-04-27T10:05:21.613Z,426.5385
2023-04-27T10:06:24.546Z,427.9231
2023-04-27T10:07:27.470Z,423.6154
2023-04-27T10:08:30.409Z,419.2308
2023-04-27T10:09:33.385Z,417.8462
2023-04-27T10:10:36.399Z,419.5385
2023-04-27T10:11:39.306Z,419.5385
2023-04-27T10:12:42.219Z,418.5385
2023-04-27T10:13:45.169Z,419.9231
2023-04-27T10:14:48.123Z,419.1538
2023-04-27T10:15:51.076Z,418.1538
2023-04-27T10:16:54.113Z,418.2308
2023-04-27T10:17:57.182Z,418.5385
2023-04-27T10:18:59.901Z,420.2308
2023-04-27T10:20:02.860Z,419.6154
2023-04-27T10:21:05.798Z,421.1538
2023-04-27T10:22:08.746Z,421.3846
2023-04-27T10:23:11.736Z,420.8462
2023-04-27T10:24:14.647Z,421.9231
2023-04-27T10:25:17.596Z,422.5385
2023-04-27T10:26:20.540Z,422.5385
2023-04-27T10:27:23.503Z,421.7692
2023-04-27T10:28:26.445Z,421.2308
2023-04-27T10:29:29.417Z,420.6923
2023-04-27T10:30:32.458Z,420.3846
2023-04-27T10:31:35.310Z,417.9231
2023-04-27T10:32:38.282Z,417.0769
2023-04-27T10:33:41.211Z,421.5385
2023-04-27T10:34:44.162Z,415.4615
2023-04-27T10:35:47.092Z,415.9231
2023-04-27T10:36:50.031Z,412.5385
2023-04-27T10:37:52.964Z,411.7692
2023-04-27T10:38:55.970Z,413.3077
2023-04-27T10:39:58.898Z,421.6154
2023-04-27T10:41:01.886Z,420.1538
2023-04-27T10:42:04.765Z,417.5385
2023-04-27T10:43:07.735Z,418.6923
2023-04-27T10:44:10.675Z,419.3077
2023-04-27T10:45:13.644Z,417.1538
2023-04-27T10:46:16.677Z,416.2308
2023-04-27T10:47:19.528Z,416.2308
2023-04-27T10:48:22.645Z,411.5385
2023-04-27T10:49:25.434Z,409.9231
2023-04-27T10:50:28.405Z,411.3077
2023-04-27T10:51:31.403Z,411.4615
2023-04-27T10:52:34.387Z,414.2308
2023-04-27T10:53:37.336Z,418.4615
2023-04-27T10:54:40.287Z,419.4615
2023-04-27T10:55:43.269Z,420.0000
2023-04-27T10:56:46.211Z,416.6154
2023-04-27T10:57:49.152Z,417.1538
2023-04-27T10:58:52.181Z,421.5385
2023-04-27T10:59:55.114Z,422.6923
2023-04-27T11:00:58.045Z,424.9231
2023-04-27T11:02:01.009Z,422.7692
2023-04-27T11:03:04.068Z,423.0000
2023-04-27T11:04:06.921Z,422.0000
2023-04-27T11:05:09.959Z,418.0769
2023-04-27T11:06:12.849Z,415.3846
2023-04-27T11:07:15.816Z,412.0000
2023-04-27T11:08:18.755Z,412.0000
2023-04-27T11:09:21.760Z,411.1538
2023-04-27T11:10:24.765Z,417.1538
2023-04-27T11:11:27.622Z,418.3846
2023-04-27T11:12:30.540Z,420.8462
2023-04-27T11:13:33.545Z,417.8462
2023-04-27T11:14:36.467Z,417.5385
2023-04-27T11:15:39.480Z,415.6154
2023-04-27T11:16:42.488Z,416.1538
2023-04-27T11:17:45.337Z,414.8462
2023-04-27T11:18:48.278Z,420.0769
2023-04-27T11:19:51.231Z,419.0000
2023-04-27T11:20:54.212Z,409.8462
2023-04-27T11:21:57.155Z,414.6923
2023-04-27T11:23:00.127Z,413.0000
2023-04-27T11:24:03.069Z,414.5385
2023-04-27T11:25:06.021Z,418.6154
2023-04-27T11:26:09.065Z,418.0769
2023-04-27T11:27:11.947Z,417.3077
2023-04-27T11:28:14.907Z,416.3846
2023-04-27T11:29:18.096Z,414.3846
2023-04-27T11:30:20.817Z,419.6154
2023-04-27T11:31:23.900Z,419.3077
2023-04-27T11:32:26.752Z,414.5385
2023-04-27T11:33:29.684Z,416.4615
2023-04-27T11:34:32.651Z,416.4615
2023-04-27T11:35:35.604Z,414.0769
2023-04-27T11:36:38.624Z,412.3077
2023-04-27T11:37:41.524Z,413.3077
2023-04-27T11:38:44.619Z,413.6923
2023-04-27T11:39:47.462Z,417.3846
2023-04-27T11:40:50.409Z,416.4615
2023-04-27T11:41:53.378Z,415.6154
2023-04-27T11:42:56.325Z,417.0000
2023-04-27T11:43:59.272Z,416.0000
2023-04-27T11:45:02.249Z,413.4615
2023-04-27T11:46:05.194Z,425.2308
2023-04-27T11:47:08.213Z,412.1538
2023-04-27T11:48:11.191Z,410.5385
2023-04-27T11:49:14.340Z,411.0000
2023-04-27T11:50:17.045Z,411.7692
2023-04-27T11:51:20.007Z,416.8462
2023-04-27T11:52:23.015Z,415.2308
2023-04-27T11:53:26.017Z,415.3077
2023-04-27T11:54:28.977Z,414.4615
2023-04-27T11:55:31.855Z,417.6923
2023-04-27T11:56:34.807Z,418.6154
2023-04-27T11:57:37.775Z,417.5385
2023-04-27T11:58:40.892Z,414.3077
2023-04-27T11:59:43.797Z,413.6154
2023-04-27T12:00:46.665Z,415.7692
2023-04-27T12:01:49.637Z,413.9231
2023-04-27T12:02:52.750Z,412.6154
2023-04-27T12:03:55.649Z,408.2308
2023-04-27T12:04:58.672Z,414.0769
2023-04-27T12:06:16.151Z,416.6154
2023-04-27T12:07:04.588Z,418.4615
2023-04-27T12:08:07.400Z,417.3846
2023-04-27T12:09:10.342Z,409.7692
2023-04-27T12:10:13.478Z,411.6154
2023-04-27T12:11:16.286Z,409.7692
2023-04-27T12:12:19.322Z,413.6923
2023-04-27T12:13:22.209Z,416.0000
2023-04-27T12:14:25.157Z,415.7692
2023-04-27T12:15:28.240Z,418.7692
2023-04-27T12:16:31.091Z,415.8462
2023-04-27T12:17:34.096Z,414.3846
2023-04-27T12:18:37.012Z,418.5385
2023-04-27T12:19:39.964Z,415.0769